Time;durP1;ratioP1;P1;durP2;ratioP2;P2;SDS_P1;SDS_P2;PMS_P1;PMS_P2;Temp;Humidity;BMP_temperature;BMP_pressure;BME280_temperature;BME280_humidity;BME280_pressure;Samples;Min_cycle;Max_cycle;Signal;HPM_P1;HPM_P2
2023/12/30 10:05:46;;;;;;;5.33;1.70;;;;;;;10.21;100.00;98888.94;5146195;27;20551;-86
2023/12/30 10:08:15;;;;;;;4.80;2.37;;;;;;;10.91;100.00;98901.31;5111919;27;39051;-86
2023/12/30 10:11:26;;;;;;;5.70;1.80;;;;;;;11.73;100.00;98909.22;5112083;27;41017;-88
2023/12/30 10:13:54;;;;;;;4.17;2.10;;;;;;;12.47;100.00;98898.00;5111641;27;42107;-86
2023/12/30 10:16:30;;;;;;;3.33;1.30;;;;;;;13.11;96.81;98890.75;5111739;27;42630;-87
2023/12/30 10:18:58;;;;;;;3.30;1.37;;;;;;;13.51;92.82;98890.53;5102895;28;39060;-87
2023/12/30 10:21:45;;;;;;;4.67;1.50;;;;;;;13.65;90.16;98925.81;5091503;28;41235;-86
2023/12/30 10:24:17;;;;;;;2.27;0.90;;;;;;;13.48;86.95;98906.72;5091524;28;41694;-87
2023/12/30 10:26:45;;;;;;;2.17;1.13;;;;;;;13.08;85.78;98864.41;5090740;28;42611;-88
2023/12/30 10:29:28;;;;;;;1.97;1.30;;;;;;;13.13;87.57;98882.66;5088241;28;39229;-89
2023/12/30 10:32:08;;;;;;;3.27;1.50;;;;;;;13.29;87.05;98924.03;5091400;28;42312;-88
2023/12/30 10:34:42;;;;;;;2.57;1.47;;;;;;;13.25;86.99;98917.22;5090846;28;43313;-87
2023/12/30 10:37:34;;;;;;;3.43;1.40;;;;;;;13.02;85.87;98890.56;5074037;28;41292;-85
2023/12/30 10:40:24;;;;;;;2.77;1.03;;;;;;;13.21;83.53;98942.38;5087372;28;38916;-87
2023/12/30 10:43:16;;;;;;;1.90;1.10;;;;;;;13.12;84.51;98902.25;5091029;28;41341;-88
2023/12/30 10:45:58;;;;;;;1.93;1.20;;;;;;;13.13;84.16;98912.78;5090735;28;43638;-87
2023/12/30 10:48:37;;;;;;;3.97;1.33;;;;;;;13.29;82.67;98942.66;5090842;28;42714;-87
2023/12/30 10:51:11;;;;;;;2.50;0.87;;;;;;;12.97;82.21;98904.22;5090639;28;40556;-87
2023/12/30 10:54:00;;;;;;;3.73;1.57;;;;;;;13.10;82.23;98936.09;5090706;28;43584;-87
2023/12/30 10:56:53;;;;;;;1.87;1.17;;;;;;;13.01;83.19;98934.91;5090391;28;42051;-89
2023/12/30 10:59:41;;;;;;;2.03;1.23;;;;;;;12.74;83.94;98902.31;5090630;28;41419;-87
2023/12/30 11:02:11;;;;;;;3.57;1.10;;;;;;;12.87;84.10;98919.94;5090825;28;39210;-88
2023/12/30 11:04:40;;;;;;;4.13;1.30;;;;;;;12.98;82.56;98937.81;5090344;28;40611;-89
2023/12/30 11:07:35;;;;;;;2.23;1.17;;;;;;;12.96;83.12;98934.41;5090248;28;42905;-89
2023/12/30 11:10:29;;;;;;;1.63;1.00;;;;;;;12.58;82.24;98878.66;5090460;28;42151;-88
2023/12/30 11:12:57;;;;;;;3.13;1.83;;;;;;;12.89;83.24;98927.81;5090507;28;39115;-89
2023/12/30 11:15:26;;;;;;;2.20;1.33;;;;;;;12.97;83.46;98921.97;5086173;28;42353;-89
2023/12/30 11:17:59;;;;;;;2.73;1.23;;;;;;;12.87;82.81;98898.69;5076645;28;41903;-88
2023/12/30 11:20:36;;;;;;;3.40;1.10;;;;;;;13.36;82.35;98924.44;5076341;28;42198;-88
2023/12/30 11:23:28;;;;;;;2.13;1.30;;;;;;;13.33;80.43;98926.47;5077159;28;39300;-88
2023/12/30 11:26:00;;;;;;;3.57;1.30;;;;;;;13.65;80.25;98927.63;5076375;28;40898;-89
2023/12/30 11:28:27;;;;;;;1.93;1.10;;;;;;;13.51;79.41;98878.09;5075969;28;43690;-88
2023/12/30 11:31:43;;;;;;;1.73;1.20;;;;;;;13.74;75.86;98897.66;5073792;28;40609;-87
2023/12/30 11:34:11;;;;;;;2.00;1.27;;;;;;;14.35;73.82;98904.50;5076421;28;41723;-88
2023/12/30 11:36:40;;;;;;;3.33;1.00;;;;;;;14.81;72.09;98887.63;5076401;28;40800;-88
2023/12/30 11:39:14;;;;;;;5.00;1.43;;;;;;;14.76;70.47;98912.94;5076390;28;42072;-86
2023/12/30 11:41:45;;;;;;;2.33;1.57;;;;;;;14.72;70.51;98889.19;5076298;28;43648;-89
2023/12/30 11:44:22;;;;;;;3.13;1.37;;;;;;;15.16;69.11;98922.16;5076259;28;40000;-88
2023/12/30 11:46:51;;;;;;;4.60;1.83;;;;;;;15.27;68.19;98927.47;5076629;28;40846;-89
2023/12/30 11:49:35;;;;;;;3.33;1.77;;;;;;;15.38;67.79;98927.44;5075932;28;43736;-90
2023/12/30 11:52:07;;;;;;;3.20;1.23;;;;;;;15.29;68.51;98925.53;5076353;28;41402;-90
2023/12/30 11:54:39;;;;;;;1.57;1.00;;;;;;;15.16;68.74;98918.63;5076612;28;40185;-89
2023/12/30 11:57:09;;;;;;;3.07;1.70;;;;;;;15.02;69.39;98912.59;5076270;28;41953;-89
2023/12/30 11:59:42;;;;;;;5.47;2.20;;;;;;;14.89;69.62;98916.34;5076543;28;42131;-88
2023/12/30 12:02:18;;;;;;;3.87;1.93;;;;;;;14.78;68.46;98916.34;5076310;28;42200;-91
2023/12/30 12:07:32;;;;;;;4.50;1.63;;;;;;;14.58;68.42;98896.59;5076136;28;41278;-89
2023/12/30 12:09:59;;;;;;;3.20;1.07;;;;;;;14.56;69.21;98904.72;5075631;28;42397;-89
2023/12/30 12:12:36;;;;;;;1.97;1.13;;;;;;;14.26;69.41;98870.59;5076315;28;41253;-89
2023/12/30 12:15:07;;;;;;;2.53;1.17;;;;;;;14.34;69.45;98899.31;5075898;28;39365;-89
2023/12/30 12:17:36;;;;;;;2.77;1.20;;;;;;;14.29;69.11;98906.81;5075883;28;40634;-87
2023/12/30 12:22:47;;;;;;;0.80;0.70;;;;;;;13.78;68.87;98848.56;5074493;28;41481;-90
2023/12/30 12:25:21;;;;;;;1.87;1.13;;;;;;;13.90;68.02;98890.22;5075642;28;40651;-90
2023/12/30 12:27:53;;;;;;;1.57;1.00;;;;;;;13.83;68.39;98885.50;5074829;28;42833;-89
2023/12/30 12:30:21;;;;;;;1.00;0.90;;;;;;;13.88;69.02;98899.28;5075294;28;42164;-88
2023/12/30 12:32:57;;;;;;;3.53;0.97;;;;;;;13.86;68.00;98901.22;5075618;28;41407;-89
2023/12/30 12:35:44;;;;;;;3.80;0.80;;;;;;;13.84;68.02;98900.50;5075455;28;38855;-88
2023/12/30 12:38:37;;;;;;;2.80;0.90;;;;;;;14.34;66.75;98868.16;5075081;28;41247;-89
2023/12/30 12:41:08;;;;;;;1.77;0.70;;;;;;;14.46;65.24;98877.09;5076115;28;43139;-90
2023/12/30 12:43:45;;;;;;;2.13;0.87;;;;;;;14.66;65.49;98899.50;5075529;28;41274;-89
2023/12/30 12:49:01;;;;;;;1.27;1.10;;;;;;;14.30;64.93;98871.22;5074110;28;41111;-89
2023/12/30 12:51:32;;;;;;;4.43;1.00;;;;;;;14.30;64.42;98893.38;5058226;28;41557;-90
2023/12/30 12:56:59;;;;;;;2.97;1.33;;;;;;;13.99;65.35;98872.69;5074637;28;39594;-88
2023/12/30 12:59:28;;;;;;;0.93;0.83;;;;;;;13.61;65.80;98812.56;5074946;28;41150;-90
2023/12/30 13:01:56;;;;;;;3.30;0.80;;;;;;;13.66;66.19;98831.72;5074980;28;44265;-89
2023/12/30 13:04:24;;;;;;;2.47;0.90;;;;;;;14.22;65.50;98901.09;5074605;28;42422;-90
2023/12/30 13:06:52;;;;;;;2.17;0.90;;;;;;;14.39;64.46;98891.81;5074813;28;38682;-91
2023/12/30 13:09:40;;;;;;;0.90;0.70;;;;;;;14.27;64.05;98864.28;5075370;28;40868;-89
2023/12/30 13:12:12;;;;;;;1.20;0.97;;;;;;;14.45;64.08;98891.38;5058246;28;42067;-89
2023/12/30 13:14:44;;;;;;;3.17;1.00;;;;;;;14.12;64.36;98835.31;5074977;28;42700;-90
2023/12/30 13:17:12;;;;;;;2.77;0.73;;;;;;;14.32;64.26;98853.28;5075015;28;38576;-91
2023/12/30 13:20:00;;;;;;;1.17;0.80;;;;;;;14.33;63.40;98855.00;5074431;28;42323;-90
2023/12/30 13:22:28;;;;;;;2.13;1.00;;;;;;;14.47;62.38;98894.75;5074862;28;42589;-90
2023/12/30 13:25:02;;;;;;;2.83;1.00;;;;;;;14.25;62.86;98862.72;5058111;28;41435;-90
2023/12/30 13:27:30;;;;;;;2.10;0.97;;;;;;;14.37;63.78;98897.25;5074581;28;39017;-90
2023/12/30 13:29:59;;;;;;;3.30;0.80;;;;;;;14.18;64.75;98877.47;5074293;28;42392;-89
2023/12/30 13:32:48;;;;;;;1.77;0.80;;;;;;;14.21;65.29;98878.09;5072159;28;43071;-90
2023/12/30 13:35:15;;;;;;;1.37;0.80;;;;;;;13.76;64.93;98829.19;5074417;28;42372;-89
2023/12/30 13:37:46;;;;;;;2.60;0.73;;;;;;;13.86;65.20;98878.09;5074821;28;40229;-90
2023/12/30 13:50:04;;;;;;;2.23;0.90;;;;;;;13.56;66.15;98857.31;5112617;27;39206;-90
2023/12/30 13:52:38;;;;;;;3.10;1.00;;;;;;;13.41;66.58;98844.31;5080773;27;41346;-90
2023/12/30 13:55:12;;;;;;;1.87;1.00;;;;;;;13.38;66.47;98836.53;5114776;27;42197;-89
2023/12/30 13:57:53;;;;;;;1.23;0.90;;;;;;;13.36;66.77;98841.97;5098160;27;42027;-90
2023/12/30 14:00:28;;;;;;;2.03;0.90;;;;;;;13.45;67.01;98867.91;5097907;27;39980;-89
2023/12/30 14:05:45;;;;;;;1.67;0.70;;;;;;;13.33;67.91;98863.50;5097684;27;43862;-88
2023/12/30 14:08:20;;;;;;;1.03;0.80;;;;;;;13.35;67.94;98852.75;5080854;27;41680;-89
2023/12/30 14:10:50;;;;;;;1.43;0.70;;;;;;;13.41;68.09;98870.91;5080970;27;40187;-89
2023/12/30 14:13:40;;;;;;;3.30;0.87;;;;;;;13.22;67.81;98851.00;5098213;27;41021;-89
2023/12/30 14:16:31;;;;;;;2.27;1.57;;;;;;;13.17;67.50;98850.47;5098193;27;41611;-89
2023/12/30 14:19:03;;;;;;;2.27;1.47;;;;;;;13.07;67.91;98841.44;5095046;27;42995;-90
2023/12/30 14:21:32;;;;;;;3.93;1.00;;;;;;;13.29;68.39;98868.19;5115070;27;39323;-89
